Time;durP1;ratioP1;P1;durP2;ratioP2;P2;SDS_P1;SDS_P2;PMS_P1;PMS_P2;Temp;Humidity;BMP_temperature;BMP_pressure;BME280_temperature;BME280_humidity;BME280_pressure;Samples;Min_cycle;Max_cycle;Signal;HPM_P1;HPM_P2
2022/01/07 00:01:41;;;;;;;58.20;30.00;;;;;;;-2.49;68.51;100867.10;110851;1252;23063;-80
2022/01/07 00:04:11;;;;;;;57.80;29.80;;;;;;;-2.51;68.55;100870.00;110837;1252;21968;-81
2022/01/07 00:06:40;;;;;;;55.40;31.50;;;;;;;-2.52;68.59;100870.20;110844;1252;21929;-80
2022/01/07 00:09:10;;;;;;;63.20;33.80;;;;;;;-2.53;68.55;100868.86;110815;1253;23048;-81
2022/01/07 00:11:39;;;;;;;51.20;29.40;;;;;;;-2.53;68.63;100869.02;110863;1253;22038;-80
2022/01/07 00:14:12;;;;;;;53.20;28.10;;;;;;;-2.53;68.63;100871.26;110882;1251;23089;-79
2022/01/07 00:16:50;;;;;;;49.50;24.60;;;;;;;-2.52;68.67;100875.72;110872;1252;23063;-81
2022/01/07 00:19:19;;;;;;;42.70;22.30;;;;;;;-2.54;68.62;100876.67;110953;1252;21973;-81
2022/01/07 00:21:49;;;;;;;43.00;23.10;;;;;;;-2.53;68.83;100878.36;110832;1254;23721;-81
2022/01/07 00:24:19;;;;;;;46.60;23.70;;;;;;;-2.52;68.85;100876.41;110325;1258;22408;-82
2022/01/07 00:26:49;;;;;;;37.70;20.70;;;;;;;-2.53;68.69;100870.59;110170;1258;21976;-81
2022/01/07 00:29:19;;;;;;;38.30;20.80;;;;;;;-2.53;68.93;100866.10;110576;1257;22018;-81
2022/01/07 00:31:48;;;;;;;38.40;20.10;;;;;;;-2.51;68.96;100853.92;110470;1257;23786;-81
2022/01/07 00:34:18;;;;;;;36.00;20.80;;;;;;;-2.48;69.03;100851.73;110471;1257;23670;-81
2022/01/07 00:36:47;;;;;;;33.40;18.80;;;;;;;-2.47;69.08;100851.66;110446;1257;22011;-80
2022/01/07 00:39:17;;;;;;;36.50;19.90;;;;;;;-2.45;68.99;100850.18;110095;1256;23579;-80
2022/01/07 00:41:47;;;;;;;40.20;21.60;;;;;;;-2.44;69.15;100851.52;110471;1253;21981;-80
2022/01/07 00:44:19;;;;;;;47.20;26.80;;;;;;;-2.43;69.12;100850.27;109868;1260;23793;-81
2022/01/07 00:46:48;;;;;;;55.30;30.10;;;;;;;-2.45;68.95;100851.92;110094;1258;23077;-81
2022/01/07 00:49:22;;;;;;;54.20;30.20;;;;;;;-2.50;68.94;100848.69;110061;1260;22975;-80
2022/01/07 00:51:51;;;;;;;75.90;37.80;;;;;;;-2.56;68.91;100848.65;110218;1258;23051;-80
2022/01/07 00:54:21;;;;;;;73.10;35.30;;;;;;;-2.64;68.80;100852.45;109869;1260;23575;-81
2022/01/07 00:56:50;;;;;;;76.70;37.60;;;;;;;-2.74;68.64;100851.55;110246;1259;21991;-81
2022/01/07 00:59:20;;;;;;;82.70;43.80;;;;;;;-2.87;68.57;100846.61;110112;1258;21979;-81
2022/01/07 01:01:50;;;;;;;65.40;38.10;;;;;;;-2.93;68.64;100846.40;109568;1260;21991;-81
2022/01/07 01:04:40;;;;;;;58.70;33.40;;;;;;;-2.99;68.89;100839.61;109834;1260;23046;-81
2022/01/07 01:07:10;;;;;;;60.30;33.80;;;;;;;-3.01;69.20;100836.05;109484;1263;22036;-81
2022/01/07 01:09:39;;;;;;;50.80;31.30;;;;;;;-3.01;69.18;100833.33;109502;1263;23141;-81
2022/01/07 01:12:12;;;;;;;56.70;33.90;;;;;;;-3.08;69.07;100830.86;109172;1270;22082;-81
2022/01/07 01:14:41;;;;;;;57.70;33.10;;;;;;;-3.14;69.25;100832.36;108930;1273;23638;-81
2022/01/07 01:17:11;;;;;;;53.90;32.90;;;;;;;-3.16;69.45;100828.29;108709;1274;22808;-81
2022/01/07 01:19:41;;;;;;;57.60;31.90;;;;;;;-3.16;69.70;100826.23;109018;1267;24393;-81
2022/01/07 01:22:10;;;;;;;62.40;35.10;;;;;;;-3.17;69.83;100828.16;109177;1268;21989;-81
2022/01/07 01:24:41;;;;;;;61.30;33.20;;;;;;;-3.19;69.85;100822.91;109223;1267;21998;-80
2022/01/07 01:27:10;;;;;;;50.00;30.40;;;;;;;-3.23;69.85;100822.42;109113;1270;21991;-80
2022/01/07 01:29:40;;;;;;;48.30;28.50;;;;;;;-3.27;70.06;100824.86;109206;1265;22065;-80
2022/01/07 01:32:10;;;;;;;54.00;30.60;;;;;;;-3.30;70.20;100827.55;109563;1259;23048;-81
2022/01/07 01:34:41;;;;;;;55.90;29.90;;;;;;;-3.33;70.36;100829.73;109517;1264;23056;-81
2022/01/07 01:37:10;;;;;;;57.90;30.60;;;;;;;-3.35;70.44;100835.14;109382;1266;22746;-80
2022/01/07 01:39:40;;;;;;;55.10;29.40;;;;;;;-3.35;70.52;100839.30;109158;1267;23744;-80
2022/01/07 01:42:10;;;;;;;51.30;29.60;;;;;;;-3.37;70.60;100837.67;109169;1267;21992;-80
2022/01/07 01:44:40;;;;;;;51.80;28.80;;;;;;;-3.39;70.75;100835.16;109300;1263;21976;-79
2022/01/07 01:47:09;;;;;;;54.60;30.40;;;;;;;-3.39;70.73;100838.93;109392;1267;21991;-79
2022/01/07 01:49:39;;;;;;;77.90;42.80;;;;;;;-3.40;70.81;100838.81;109089;1268;23122;-79
2022/01/07 01:52:09;;;;;;;52.50;30.10;;;;;;;-3.40;70.92;100837.45;109231;1264;23714;-79
2022/01/07 01:54:45;;;;;;;62.60;32.60;;;;;;;-3.39;70.93;100834.30;109489;1258;23762;-79
2022/01/07 01:57:15;;;;;;;77.50;31.40;;;;;;;-3.38;71.09;100836.64;110127;1259;21994;-79
2022/01/07 01:59:44;;;;;;;64.30;30.90;;;;;;;-3.36;71.09;100832.62;109507;1264;22090;-79
2022/01/07 02:02:17;;;;;;;61.80;33.70;;;;;;;-3.35;71.19;100835.33;109770;1263;21979;-80
2022/01/07 02:04:49;;;;;;;58.90;33.00;;;;;;;-3.34;71.25;100839.77;109405;1259;23681;-80
2022/01/07 02:07:19;;;;;;;51.00;32.90;;;;;;;-3.33;71.20;100839.05;110281;1259;22463;-80
2022/01/07 02:09:48;;;;;;;53.10;27.90;;;;;;;-3.32;71.23;100837.27;110226;1259;22046;-79
2022/01/07 02:12:18;;;;;;;51.20;25.20;;;;;;;-3.31;71.27;100840.16;110263;1259;23677;-80
2022/01/07 02:14:55;;;;;;;46.10;25.30;;;;;;;-3.33;71.12;100838.67;110097;1258;22160;-79
2022/01/07 02:17:27;;;;;;;43.40;23.30;;;;;;;-3.36;71.19;100841.55;110395;1253;22042;-79
2022/01/07 02:19:57;;;;;;;50.40;24.40;;;;;;;-3.39;71.32;100840.82;110896;1253;23688;-79
2022/01/07 02:22:26;;;;;;;41.80;23.10;;;;;;;-3.42;71.29;100839.27;110791;1253;21987;-79
2022/01/07 02:24:56;;;;;;;46.30;23.40;;;;;;;-3.43;71.45;100836.73;110483;1254;23001;-80
2022/01/07 02:27:25;;;;;;;43.30;23.00;;;;;;;-3.43;71.59;100836.04;110603;1256;23171;-79
2022/01/07 02:29:57;;;;;;;43.90;22.50;;;;;;;-3.42;71.75;100832.70;109946;1260;23796;-79
2022/01/07 02:32:27;;;;;;;38.10;20.70;;;;;;;-3.43;71.67;100833.94;109340;1265;22193;-80
2022/01/07 02:34:56;;;;;;;36.50;20.10;;;;;;;-3.44;71.78;100834.35;109335;1265;23675;-79
2022/01/07 02:37:31;;;;;;;42.30;21.20;;;;;;;-3.45;71.72;100828.36;109231;1265;22520;-80
2022/01/07 02:40:02;;;;;;;40.50;20.80;;;;;;;-3.44;71.91;100827.64;109161;1267;22718;-80
2022/01/07 02:42:32;;;;;;;39.30;20.90;;;;;;;-3.45;71.93;100827.52;109297;1267;21982;-79
2022/01/07 02:45:08;;;;;;;39.10;21.90;;;;;;;-3.46;72.02;100830.66;109515;1263;21988;-80
2022/01/07 02:48:03;;;;;;;48.20;24.90;;;;;;;-3.47;71.91;100829.69;109561;1260;22057;-79
2022/01/07 02:50:35;;;;;;;43.70;23.60;;;;;;;-3.51;72.03;100826.40;110171;1255;22881;-79
2022/01/07 02:53:09;;;;;;;46.60;24.80;;;;;;;-3.53;72.13;100825.81;110571;1256;21978;-79
2022/01/07 02:55:40;;;;;;;34.00;20.90;;;;;;;-3.53;72.29;100826.14;110524;1256;22827;-79
2022/01/07 02:58:10;;;;;;;44.30;26.30;;;;;;;-3.51;72.31;100829.00;110000;1259;21983;-79
2022/01/07 03:00:39;;;;;;;49.60;25.80;;;;;;;-3.50;72.42;100827.06;110002;1259;21972;-79
2022/01/07 03:03:09;;;;;;;44.40;24.70;;;;;;;-3.47;72.59;100828.27;109430;1264;23599;-79
2022/01/07 03:05:41;;;;;;;31.90;16.90;;;;;;;-3.43;72.60;100826.04;109345;1263;23020;-79
2022/01/07 03:08:11;;;;;;;34.40;16.40;;;;;;;-3.41;72.71;100828.20;110116;1260;22057;-79
2022/01/07 03:10:40;;;;;;;35.10;19.50;;;;;;;-3.39;72.78;100826.40;109981;1260;21992;-79
2022/01/07 03:13:09;;;;;;;31.40;18.60;;;;;;;-3.36;72.73;100823.33;110050;1261;22031;-79
2022/01/07 03:15:39;;;;;;;34.00;18.70;;;;;;;-3.34;72.85;100826.31;109786;1259;21988;-79
2022/01/07 03:18:09;;;;;;;38.80;20.60;;;;;;;-3.29;72.91;100823.73;110080;1259;22006;-79
2022/01/07 03:20:38;;;;;;;28.90;18.60;;;;;;;-3.26;72.95;100825.64;110038;1254;22026;-79
2022/01/07 03:23:12;;;;;;;46.30;25.80;;;;;;;-3.23;72.97;100825.00;110247;1259;22149;-80
2022/01/07 03:25:45;;;;;;;46.40;27.80;;;;;;;-3.21;73.12;100831.27;110285;1259;23749;-80
2022/01/07 03:28:17;;;;;;;37.20;22.40;;;;;;;-3.19;73.00;100830.66;110240;1259;23762;-79
2022/01/07 03:30:50;;;;;;;32.20;20.90;;;;;;;-3.18;72.94;100825.98;110146;1259;24276;-79
2022/01/07 03:33:19;;;;;;;36.50;22.10;;;;;;;-3.18;73.11;100819.79;110279;1259;21989;-80
2022/01/07 03:35:49;;;;;;;40.50;23.30;;;;;;;-3.18;72.96;100815.48;110123;1259;21985;-80
2022/01/07 03:38:20;;;;;;;42.10;23.50;;;;;;;-3.21;72.94;100814.03;110207;1259;21992;-80
2022/01/07 03:40:50;;;;;;;32.70;20.20;;;;;;;-3.21;73.16;100809.92;110396;1251;23641;-80
2022/01/07 03:43:20;;;;;;;32.60;19.50;;;;;;;-3.19;73.28;100807.40;110840;1253;22117;-80
2022/01/07 03:45:52;;;;;;;40.70;19.90;;;;;;;-3.17;73.41;100809.55;110502;1259;23938;-80
2022/01/07 03:48:21;;;;;;;33.10;17.90;;;;;;;-3.13;73.49;100810.26;110416;1259;21982;-80
2022/01/07 03:50:51;;;;;;;34.40;20.10;;;;;;;-3.10;73.53;100814.26;110448;1259;21975;-80
2022/01/07 03:53:24;;;;;;;26.70;16.70;;;;;;;-3.11;73.50;100815.66;110271;1257;22058;-81
2022/01/07 03:55:54;;;;;;;27.70;16.50;;;;;;;-3.11;73.48;100814.95;110216;1257;21968;-80
2022/01/07 03:58:27;;;;;;;27.50;17.00;;;;;;;-3.08;73.67;100807.95;110582;1257;21973;-80
2022/01/07 04:00:57;;;;;;;27.30;15.90;;;;;;;-3.03;73.81;100809.10;110331;1257;21978;-79
2022/01/07 04:03:27;;;;;;;31.70;17.40;;;;;;;-2.98;73.90;100806.83;110038;1253;21999;-78
2022/01/07 04:05:58;;;;;;;26.00;15.50;;;;;;;-2.95;74.03;100803.89;111028;1251;23005;-79
2022/01/07 04:08:28;;;;;;;28.80;17.50;;;;;;;-2.92;73.81;100807.38;110847;1253;21958;-81
2022/01/07 04:11:00;;;;;;;30.10;18.30;;;;;;;-2.90;73.83;100807.12;111051;1253;23758;-83
2022/01/07 04:13:29;;;;;;;;;;;;;;;-2.87;73.73;100803.52;111121;1253;21978;-82
2022/01/07 04:15:59;;;;;;;34.40;18.30;;;;;;;-2.91;73.81;100803.02;110988;1253;21969;-83
2022/01/07 04:18:29;;;;;;;36.40;16.70;;;;;;;-2.92;73.85;100799.61;110678;1256;22057;-84
2022/01/07 04:20:58;;;;;;;27.10;16.60;;;;;;;-2.89;73.83;100797.27;110832;1256;22001;-84
2022/01/07 04:23:28;;;;;;;27.30;16.90;;;;;;;-2.86;73.75;100791.61;110195;1259;22151;-83
2022/01/07 04:25:58;;;;;;;28.10;16.90;;;;;;;-2.83;73.73;100794.06;110226;1259;23693;-82
2022/01/07 04:28:27;;;;;;;30.50;16.50;;;;;;;-2.81;73.73;100793.98;109576;1265;21992;-82
2022/01/07 04:30:57;;;;;;;32.20;19.30;;;;;;;-2.79;73.65;100793.53;109604;1265;22696;-83
2022/01/07 04:33:34;;;;;;;31.30;19.90;;;;;;;-2.79;73.49;100792.84;109265;1270;21970;-83
2022/01/07 04:36:04;;;;;;;36.90;19.90;;;;;;;-2.80;73.57;100789.08;108834;1272;22771;-81
2022/01/07 04:38:33;;;;;;;34.90;21.00;;;;;;;-2.79;73.52;100791.80;108846;1273;21996;-83
2022/01/07 04:41:05;;;;;;;27.60;18.40;;;;;;;-2.76;73.66;100791.69;108727;1276;22008;-83
2022/01/07 04:43:40;;;;;;;28.90;18.30;;;;;;;-2.75;73.62;100792.33;108731;1279;22451;-81
2022/01/07 04:46:11;;;;;;;28.20;18.60;;;;;;;-2.75;73.57;100788.84;108806;1273;21988;-82
2022/01/07 04:48:41;;;;;;;27.30;16.90;;;;;;;-2.76;73.36;100786.29;108998;1273;22573;-83
2022/01/07 04:51:11;;;;;;;29.30;18.40;;;;;;;-2.78;73.28;100789.70;109147;1267;22071;-83
2022/01/07 04:53:42;;;;;;;28.20;18.10;;;;;;;-2.77;73.45;100787.08;109440;1264;21972;-83
2022/01/07 04:56:15;;;;;;;34.70;19.10;;;;;;;-2.77;73.42;100789.30;109611;1265;21988;-83
2022/01/07 04:58:47;;;;;;;34.60;21.40;;;;;;;-2.79;73.43;100787.17;109740;1262;22030;-83
2022/01/07 05:01:16;;;;;;;37.70;22.60;;;;;;;-2.80;73.40;100783.77;110238;1256;23458;-83
2022/01/07 05:03:49;;;;;;;30.70;18.80;;;;;;;-2.80;73.50;100785.29;110646;1257;21986;-84
2022/01/07 05:09:14;;;;;;;38.80;23.30;;;;;;;-2.80;73.39;100788.93;110654;1256;21961;-82
2022/01/07 05:11:50;;;;;;;38.70;24.30;;;;;;;-2.80;73.38;100792.69;110224;1260;21973;-82
2022/01/07 05:14:21;;;;;;;44.90;27.80;;;;;;;-2.78;73.29;100788.80;109946;1259;21985;-83
2022/01/07 05:16:57;;;;;;;32.00;20.10;;;;;;;-2.79;73.10;100783.34;110262;1260;21991;-83
2022/01/07 05:19:28;;;;;;;39.00;21.00;;;;;;;-2.82;72.93;100781.77;109948;1264;21973;-80
2022/01/07 05:21:57;;;;;;;39.00;20.70;;;;;;;-2.85;73.18;100777.94;109681;1264;23590;-83
2022/01/07 05:24:27;;;;;;;41.40;23.50;;;;;;;-2.85;73.27;100773.61;109986;1265;22016;-84
2022/01/07 05:26:57;;;;;;;34.60;20.40;;;;;;;-2.82;73.30;100777.64;109725;1265;22035;-83
2022/01/07 05:29:28;;;;;;;43.80;23.90;;;;;;;-2.80;73.19;100772.53;109793;1262;21992;-82
2022/01/07 05:31:58;;;;;;;44.30;24.80;;;;;;;-2.80;73.12;100771.02;110320;1256;24390;-81
2022/01/07 05:34:27;;;;;;;37.30;21.60;;;;;;;-2.79;73.13;100765.27;110604;1256;21944;-82
2022/01/07 05:37:01;;;;;;;46.30;22.80;;;;;;;-2.77;73.12;100761.02;109848;1259;21986;-83
2022/01/07 05:39:31;;;;;;;40.20;21.40;;;;;;;-2.75;73.03;100764.56;110580;1257;21943;-84
2022/01/07 05:42:12;;;;;;;47.20;27.40;;;;;;;-2.76;72.83;100768.88;110127;1264;21989;-85
2022/01/07 05:44:42;;;;;;;37.10;20.60;;;;;;;-2.74;72.89;100766.89;109867;1267;22053;-85
2022/01/07 05:47:14;;;;;;;40.40;22.90;;;;;;;-2.72;72.73;100764.22;109454;1267;22046;-83
2022/01/07 05:49:46;;;;;;;39.70;21.30;;;;;;;-2.70;72.73;100767.60;108940;1267;639862;-84
2022/01/07 05:53:20;;;;;;;;;;;;;;;;;;;;;
2022/01/07 05:56:26;;;;;;;29.30;17.20;;;;;;;-2.71;72.68;100768.52;112113;1253;22548;-86
2022/01/07 06:06:51;;;;;;;;;;;;;;;;;;;;;
2022/01/07 06:09:49;;;;;;;39.70;19.00;;;;;;;-2.74;72.32;100759.65;112602;1247;21953;-86
2022/01/07 06:12:27;;;;;;;35.70;18.20;;;;;;;-2.76;72.32;100755.78;112512;1256;21909;-86
2022/01/07 06:15:01;;;;;;;36.60;18.60;;;;;;;-2.72;72.23;100758.52;111904;1257;21953;-87
2022/01/07 06:17:36;;;;;;;30.10;19.90;;;;;;;-2.70;72.11;100757.94;111717;1257;21898;-84
2022/01/07 06:20:09;;;;;;;30.90;18.70;;;;;;;-2.64;72.14;100754.00;112300;1257;21879;-83
2022/01/07 06:22:39;;;;;;;32.30;20.50;;;;;;;-2.58;71.95;100758.91;111864;1259;22337;-83
2022/01/07 06:25:15;;;;;;;30.20;18.40;;;;;;;-2.56;71.78;100761.21;111412;1263;22007;-85
2022/01/07 06:27:52;;;;;;;28.90;18.00;;;;;;;-2.52;71.61;100767.08;110949;1263;21926;-85
2022/01/07 06:30:55;;;;;;;;;;;;;;;;;;;;;
2022/01/07 06:34:20;;;;;;;;;;;;;;;;;;;;;
2022/01/07 06:37:26;;;;;;;40.50;21.90;;;;;;;-2.46;71.25;100769.70;112723;1247;21888;-84
2022/01/07 06:40:00;;;;;;;41.50;22.30;;;;;;;-2.48;71.24;100767.54;112391;1254;21910;-83
2022/01/07 06:42:35;;;;;;;47.40;26.30;;;;;;;-2.48;71.20;100766.34;112490;1253;21935;-82
2022/01/07 06:45:06;;;;;;;50.20;30.60;;;;;;;-2.48;71.16;100765.81;112111;1257;21917;-81
2022/01/07 06:47:40;;;;;;;47.10;27.80;;;;;;;-2.47;71.10;100760.45;111614;1258;21927;-84
2022/01/07 06:50:10;;;;;;;50.20;28.30;;;;;;;-2.49;70.87;100759.48;111752;1257;22272;-84
2022/01/07 06:52:40;;;;;;;50.20;27.30;;;;;;;-2.45;70.83;100764.30;111604;1257;21997;-85
2022/01/07 06:55:18;;;;;;;42.10;26.80;;;;;;;-2.44;70.83;100756.64;111792;1257;21851;-84
2022/01/07 06:57:50;;;;;;;45.90;29.10;;;;;;;-2.43;70.77;100753.67;111783;1257;21893;-84
2022/01/07 07:00:25;;;;;;;38.70;25.50;;;;;;;-2.39;70.85;100754.17;111617;1257;21902;-83
2022/01/07 07:02:57;;;;;;;33.60;21.50;;;;;;;-2.34;70.80;100750.48;111822;1254;21954;-84
2022/01/07 07:05:27;;;;;;;33.40;23.00;;;;;;;-2.30;70.75;100751.18;111680;1260;21978;-79
2022/01/07 07:07:56;;;;;;;142.50;73.40;;;;;;;-2.27;70.67;100755.16;112126;1259;21886;-82
2022/01/07 07:10:28;;;;;;;;;;;;;;;-2.25;70.57;100755.06;110898;1264;21951;-81
2022/01/07 07:12:58;;;;;;;482.50;243.00;;;;;;;-2.27;70.52;100753.27;110767;1265;22118;-83
2022/01/07 07:15:28;;;;;;;222.20;108.50;;;;;;;-2.30;70.58;100750.64;110903;1264;22271;-83
2022/01/07 07:17:57;;;;;;;140.80;68.00;;;;;;;-2.29;70.46;100754.01;110776;1263;21955;-83
2022/01/07 07:20:30;;;;;;;142.30;66.90;;;;;;;-2.31;70.28;100755.84;110625;1268;21900;-83
2022/01/07 07:22:59;;;;;;;82.40;48.50;;;;;;;-2.36;70.06;100756.30;110724;1265;21927;-83
2022/01/07 07:25:29;;;;;;;71.80;43.20;;;;;;;-2.43;69.91;100757.49;110625;1270;21929;-82
2022/01/07 07:28:02;;;;;;;64.60;42.40;;;;;;;-2.55;69.77;100769.45;110417;1265;21950;-81
2022/01/07 07:30:37;;;;;;;78.10;50.30;;;;;;;-2.71;69.60;100770.55;110877;1264;22285;-82
2022/01/07 07:33:31;;;;;;;98.40;59.10;;;;;;;-2.86;69.48;100781.12;110969;1263;21956;-84
2022/01/07 07:38:50;;;;;;;101.60;63.40;;;;;;;-3.09;69.93;100782.48;111364;1260;22623;-84
2022/01/07 07:41:20;;;;;;;93.10;60.20;;;;;;;-3.09;70.20;100785.92;111160;1260;21965;-83
2022/01/07 07:44:14;;;;;;;90.00;54.10;;;;;;;-3.04;70.40;100787.45;112193;1254;21877;-83
2022/01/07 07:46:48;;;;;;;83.10;53.50;;;;;;;-3.02;70.46;100784.07;112538;1253;21886;-84
2022/01/07 07:49:18;;;;;;;86.70;55.60;;;;;;;-2.97;70.68;100784.89;112323;1254;21873;-84
2022/01/07 07:51:48;;;;;;;86.00;58.20;;;;;;;-2.91;70.67;100786.49;112516;1254;21866;-84
2022/01/07 07:54:19;;;;;;;132.70;81.80;;;;;;;-2.87;70.71;100785.58;111097;1260;21972;-83
2022/01/07 07:57:08;;;;;;;96.90;63.30;;;;;;;-2.81;70.86;100783.09;111269;1260;22281;-88
2022/01/07 07:59:49;;;;;;;95.80;58.30;;;;;;;-2.75;70.82;100782.99;112530;1255;21906;-86
2022/01/07 08:02:44;;;;;;;97.80;58.60;;;;;;;-2.73;70.82;100773.75;111598;1260;21906;-84
2022/01/07 08:05:49;;;;;;;86.60;54.60;;;;;;;-2.69;70.93;100776.48;111994;1257;21917;-84
2022/01/07 08:08:25;;;;;;;92.10;57.30;;;;;;;-2.60;71.15;100774.88;112174;1257;22023;-85
2022/01/07 08:11:09;;;;;;;90.20;53.60;;;;;;;-2.54;71.26;100773.35;111917;1257;21934;-84
2022/01/07 08:17:43;;;;;;;;;;;;;;;;;;;;;
2022/01/07 08:21:13;;;;;;;87.00;51.60;;;;;;;-2.39;71.46;100774.03;110776;1269;21929;-85
2022/01/07 08:24:45;;;;;;;;;;;;;;;;;;;;;
2022/01/07 08:27:49;;;;;;;74.80;47.60;;;;;;;-2.14;71.73;100759.53;112509;1255;21920;-84
2022/01/07 08:30:29;;;;;;;69.60;46.90;;;;;;;-2.00;71.86;100759.13;111560;1256;21949;-87
2022/01/07 08:35:59;;;;;;;;;;;;;;;-1.69;71.82;100754.42;111147;1261;21934;-84
2022/01/07 08:38:33;;;;;;;76.90;50.00;;;;;;;-1.61;71.85;100749.38;111096;1261;21920;-84
2022/01/07 08:41:06;;;;;;;77.00;51.50;;;;;;;-1.48;71.90;100752.66;110898;1262;21916;-85
2022/01/07 08:43:48;;;;;;;61.80;42.20;;;;;;;-1.33;71.73;100749.98;110631;1265;22418;-79
2022/01/07 08:46:30;;;;;;;57.00;37.10;;;;;;;-1.21;71.58;100752.80;110845;1267;21895;-84
2022/01/07 08:49:13;;;;;;;55.40;34.70;;;;;;;-1.10;71.57;100753.56;110377;1273;21967;-85
2022/01/07 08:51:48;;;;;;;219.60;131.00;;;;;;;-0.98;71.57;100749.41;110662;1267;22676;-83
2022/01/07 08:54:27;;;;;;;180.70;114.70;;;;;;;-0.85;71.48;100749.63;110176;1271;22330;-86
2022/01/07 08:57:06;;;;;;;139.60;85.10;;;;;;;-0.74;71.36;100750.88;109992;1276;21946;-85
2022/01/07 08:59:49;;;;;;;94.90;63.50;;;;;;;-0.57;71.13;100758.05;110010;1276;21974;-85
2022/01/07 09:02:22;;;;;;;76.00;50.70;;;;;;;-0.47;71.07;100755.23;110422;1270;21920;-85
2022/01/07 09:04:55;;;;;;;49.30;33.20;;;;;;;-0.34;70.81;100750.32;110216;1270;21932;-86
2022/01/07 09:07:26;;;;;;;50.50;31.20;;;;;;;-0.20;70.49;100755.09;110066;1276;21949;-85
2022/01/07 09:09:57;;;;;;;36.00;24.80;;;;;;;-0.11;70.33;100752.11;110057;1275;22225;-85
2022/01/07 09:13:01;;;;;;;46.90;32.40;;;;;;;-0.01;70.00;100751.01;110124;1271;21978;-86
2022/01/07 09:15:38;;;;;;;43.00;34.20;;;;;;;0.08;69.55;100750.84;110925;1263;21915;-85
2022/01/07 09:18:14;;;;;;;40.10;31.10;;;;;;;0.13;69.44;100746.40;110899;1263;22026;-86
2022/01/07 09:20:45;;;;;;;50.30;35.70;;;;;;;0.19;69.27;100745.85;110923;1263;22023;-85
2022/01/07 09:23:16;;;;;;;39.40;28.40;;;;;;;0.31;69.20;100751.94;110705;1267;21939;-86
2022/01/07 09:25:46;;;;;;;45.40;33.80;;;;;;;0.36;69.10;100750.02;110988;1260;22028;-82
2022/01/07 09:28:16;;;;;;;43.40;33.80;;;;;;;0.45;68.67;100746.90;110980;1260;21961;-86
2022/01/07 09:30:54;;;;;;;38.70;30.20;;;;;;;0.48;68.13;100744.27;110989;1261;21963;-86
2022/01/07 09:33:28;;;;;;;55.20;40.70;;;;;;;0.53;67.99;100742.95;111000;1261;21926;-86
2022/01/07 09:36:21;;;;;;;46.40;39.10;;;;;;;0.62;67.85;100741.20;111024;1261;22003;-86
2022/01/07 09:38:58;;;;;;;45.60;38.20;;;;;;;0.73;68.04;100735.31;110975;1261;21953;-85
2022/01/07 09:41:31;;;;;;;56.10;41.40;;;;;;;0.89;68.12;100732.23;111327;1257;21908;-86
2022/01/07 09:44:14;;;;;;;50.30;37.50;;;;;;;1.02;67.78;100733.80;112120;1257;22374;-86
2022/01/07 09:46:48;;;;;;;43.60;32.80;;;;;;;1.08;67.21;100734.80;111812;1257;21881;-86
2022/01/07 09:49:18;;;;;;;54.50;40.00;;;;;;;1.12;67.00;100734.77;111787;1257;21870;-86
2022/01/07 09:51:56;;;;;;;33.20;23.30;;;;;;;1.20;66.94;100726.79;111782;1257;21882;-85
2022/01/07 09:54:42;;;;;;;35.40;25.90;;;;;;;1.26;66.35;100727.29;110891;1263;21943;-85
2022/01/07 09:57:16;;;;;;;39.20;27.30;;;;;;;1.30;66.20;100720.98;110838;1263;21929;-84
2022/01/07 09:59:54;;;;;;;39.10;29.60;;;;;;;1.38;65.77;100719.73;110910;1263;21788;-86
2022/01/07 10:02:26;;;;;;;30.10;22.90;;;;;;;1.31;65.18;100712.21;110877;1264;22338;-86
2022/01/07 10:05:48;;;;;;;31.00;22.00;;;;;;;1.30;64.96;100711.56;110905;1263;21902;-85
2022/01/07 10:08:35;;;;;;;37.00;25.30;;;;;;;1.32;64.95;100706.22;110838;1269;21903;-84
2022/01/07 10:11:49;;;;;;;40.80;28.00;;;;;;;1.39;64.87;100695.36;109932;1281;21850;-84
2022/01/07 10:16:18;;;;;;;;;;;;;;;;;;;;;
2022/01/07 10:19:19;;;;;;;;;;;;;;;;;;;;;
2022/01/07 10:22:43;;;;;;;;;;;;;;;;;;;;;
2022/01/07 10:26:45;;;;;;;;;;;;;;;;;;;;;
2022/01/07 10:30:44;;;;;;;;;;;;;;;;;;;;;
2022/01/07 10:35:19;;;;;;;33.20;20.10;;;;;;;2.00;63.41;100678.75;112534;1255;21917;-86
2022/01/07 10:43:12;;;;;;;33.70;24.30;;;;;;;2.46;62.97;100671.09;112365;1254;21897;-86
2022/01/07 10:47:28;;;;;;;;;;;;;;;;;;;;;
2022/01/07 10:51:57;;;;;;;;;;;;;;;;;;;;;
2022/01/07 10:56:06;;;;;;;22.10;14.40;;;;;;;2.99;60.84;100654.79;111764;1260;21913;-86
2022/01/07 11:04:41;;;;;;;;;;;;;;;;;;;;;
2022/01/07 11:12:56;;;;;;;38.10;24.30;;;;;;;4.61;62.50;100654.06;110872;1257;22126;-87
2022/01/07 11:20:09;;;;;;;;;;;;;;;;;;;;;
2022/01/07 11:27:54;;;;;;;24.50;18.60;;;;;;;4.68;52.99;100649.90;112070;1259;21901;-86
2022/01/07 11:50:44;;;;;;;25.00;17.40;;;;;;;3.05;54.76;100614.82;112492;1256;21949;-85
2022/01/07 11:54:20;;;;;;;34.50;22.80;;;;;;;2.82;55.71;100612.00;111953;1256;21945;-86
2022/01/07 11:58:21;;;;;;;;;;;;;;;;;;;;;
2022/01/07 12:01:43;;;;;;;91.70;63.40;;;;;;;2.49;56.21;100606.55;112024;1256;22018;-86
2022/01/07 12:05:38;;;;;;;;;;;;;;;;;;;;;
2022/01/07 12:13:50;;;;;;;40.50;24.80;;;;;;;2.01;57.29;100604.56;110836;1269;22413;-83
2022/01/07 12:17:23;;;;;;;27.10;18.80;;;;;;;1.96;57.92;100605.42;110287;1270;22268;-84
2022/01/07 12:20:55;;;;;;;23.90;16.20;;;;;;;1.93;57.94;100601.98;110525;1270;21937;-86
2022/01/07 12:24:08;;;;;;;24.10;16.10;;;;;;;1.84;57.92;100595.09;110582;1270;22063;-84
2022/01/07 12:27:37;;;;;;;;;;;;;;;;;;;;;
2022/01/07 12:31:10;;;;;;;402.30;193.20;;;;;;;1.90;58.20;100585.87;110372;1267;21971;-84
2022/01/07 12:34:33;;;;;;;;;;;;;;;;;;;;;
2022/01/07 12:37:32;;;;;;;39.50;22.90;;;;;;;1.93;58.24;100581.46;110713;1268;22034;-84
2022/01/07 12:40:16;;;;;;;35.50;21.20;;;;;;;1.86;58.21;100579.36;110623;1267;21997;-82
2022/01/07 12:43:31;;;;;;;42.80;23.60;;;;;;;1.84;58.32;100574.61;110588;1267;21905;-84
2022/01/07 13:01:31;;;;;;;37.70;22.50;;;;;;;1.47;58.68;100547.98;109904;1283;21887;-81
2022/01/07 13:04:25;;;;;;;39.60;25.90;;;;;;;1.50;59.02;100545.04;109302;1285;22308;-84
2022/01/07 13:06:56;;;;;;;31.20;20.60;;;;;;;1.57;59.06;100547.13;109714;1283;21896;-83
2022/01/07 13:16:33;;;;;;;;;;;;;;;;;;;;;
2022/01/07 13:24:18;;;;;;;33.50;24.70;;;;;;;1.44;59.34;100518.91;112490;1256;21901;-89
2022/01/07 13:27:32;;;;;;;39.30;26.10;;;;;;;1.39;59.48;100518.86;110952;1263;21962;-88
2022/01/07 15:00:17;;;;;;;;;;;;;;;;;;;;;
2022/01/07 15:03:48;;;;;;;98.20;45.00;;;;;;;0.38;61.95;100499.95;111227;1264;22338;-84
2022/01/07 15:07:54;;;;;;;;;;;;;;;;;;;;;
2022/01/07 15:11:44;;;;;;;;;;;;;;;;;;;;;
2022/01/07 15:20:05;;;;;;;93.20;45.00;;;;;;;0.19;62.06;100489.66;110207;1276;21931;-83
2022/01/07 15:23:27;;;;;;;;;;;;;;;;;;;;;
2022/01/07 15:27:07;;;;;;;83.60;43.10;;;;;;;0.18;62.15;100478.83;109927;1283;21816;-85
2022/01/07 15:31:31;;;;;;;92.40;45.50;;;;;;;0.13;62.22;100469.82;109815;1286;21864;-85
2022/01/07 15:34:45;;;;;;;;;;;;;;;;;;;;;
2022/01/07 17:22:46;;;;;;;92.60;58.50;;;;;;;0.12;63.93;100413.56;111761;1246;21945;31
2022/01/07 18:12:14;;;;;;;;;;;;;;;;;;;;;
2022/01/07 18:23:13;;;;;;;;;;;;;;;;;;;;;
2022/01/07 19:02:10;;;;;;;154.30;70.50;;;;;;;-0.03;63.42;100369.34;110887;1251;22163;31
2022/01/07 19:05:53;;;;;;;;;;;;;;;;;;;;;
2022/01/07 19:09:10;;;;;;;;;;;;;;;;;;;;;
2022/01/07 19:13:13;;;;;;;;;;;;;;;;;;;;;
2022/01/07 19:35:13;;;;;;;55.90;35.00;;;;;;;0.04;62.71;100359.38;111004;1263;21928;-85
2022/01/07 19:39:11;;;;;;;51.70;36.30;;;;;;;-0.04;62.68;100354.70;110889;1263;21904;-85
2022/01/07 19:43:06;;;;;;;;;;;;;;;;;;;;;
2022/01/07 19:46:16;;;;;;;47.00;34.70;;;;;;;0.06;62.57;100357.21;110527;1270;21935;-85
2022/01/07 19:49:41;;;;;;;;;;;;;;;;;;;;;
2022/01/07 19:53:15;;;;;;;51.80;34.10;;;;;;;0.06;62.34;100359.44;109963;1279;21973;-83
2022/01/07 19:56:29;;;;;;;;;;;;;;;;;;;;;
2022/01/07 21:18:19;;;;;;;;;;;;;;;;;;;;;
2022/01/07 21:25:18;;;;;;;67.40;36.60;;;;;;;-0.28;61.45;100306.59;107934;1262;21915;-85